createdAt,value
2024-03-01T00:02:01.360Z,25.10
2024-03-01T00:04:03.300Z,25.10
2024-03-01T00:06:05.405Z,25.00
2024-03-01T00:08:07.230Z,25.00
2024-03-01T00:10:09.541Z,25.00
2024-03-01T00:12:11.471Z,25.00
2024-03-01T00:14:13.413Z,25.00
2024-03-01T00:16:15.352Z,25.00
2024-03-01T00:18:17.680Z,25.00
2024-03-01T00:20:19.522Z,25.00
2024-03-01T00:22:21.473Z,24.90
2024-03-01T00:24:23.316Z,24.90
2024-03-01T00:26:25.213Z,24.90
2024-03-01T00:28:27.154Z,24.80
2024-03-01T00:30:29.148Z,24.80
2024-03-01T00:32:31.083Z,24.80
2024-03-01T00:34:33.035Z,24.80
2024-03-01T00:36:34.975Z,24.70
2024-03-01T00:38:36.877Z,24.70
2024-03-01T00:40:38.765Z,24.70
2024-03-01T00:42:40.698Z,24.60
2024-03-01T00:44:42.566Z,24.60
2024-03-01T00:46:44.443Z,24.60
2024-03-01T00:48:46.273Z,24.60
2024-03-01T00:50:48.230Z,24.60
2024-03-01T00:52:50.047Z,24.60
2024-03-01T00:54:51.967Z,24.60
2024-03-01T00:56:54.471Z,24.50
2024-03-01T00:58:56.346Z,24.50
2024-03-01T01:00:58.253Z,24.50
2024-03-01T01:03:00.228Z,24.60
2024-03-01T01:05:02.219Z,24.50
2024-03-01T01:07:04.206Z,24.50
2024-03-01T01:09:06.088Z,24.50
2024-03-01T01:11:08.018Z,24.50
2024-03-01T01:13:09.915Z,24.50
2024-03-01T01:15:14.145Z,24.40
2024-03-01T01:17:16.248Z,24.40
2024-03-01T01:19:18.194Z,24.40
2024-03-01T01:21:20.073Z,24.40
2024-03-01T01:23:21.944Z,24.40
2024-03-01T01:25:23.826Z,24.40
2024-03-01T01:27:25.762Z,24.40
2024-03-01T01:29:27.588Z,24.30
2024-03-01T01:31:29.768Z,24.30
2024-03-01T01:33:31.642Z,24.30
2024-03-01T01:35:34.484Z,24.30
2024-03-01T01:37:36.458Z,24.30
2024-03-01T01:39:38.357Z,24.20
2024-03-01T01:41:40.199Z,24.20
2024-03-01T01:43:42.211Z,24.20
2024-03-01T01:45:44.050Z,24.20
2024-03-01T01:47:45.985Z,24.20
2024-03-01T01:49:47.841Z,24.20
2024-03-01T01:51:50.013Z,24.10
2024-03-01T01:53:52.010Z,24.10
2024-03-01T01:55:54.401Z,24.10
2024-03-01T01:57:56.382Z,24.10
2024-03-01T01:59:58.805Z,24.10
2024-03-01T02:02:01.957Z,24.10
2024-03-01T02:04:04.029Z,24.10
2024-03-01T02:06:06.164Z,24.10
2024-03-01T02:08:08.172Z,24.10
2024-03-01T02:10:10.165Z,24.10
2024-03-01T02:12:12.345Z,24.10
2024-03-01T02:14:14.251Z,24.10
2024-03-01T02:16:16.170Z,24.10
2024-03-01T02:18:18.049Z,24.00
2024-03-01T02:20:23.742Z,24.00
2024-03-01T02:22:27.020Z,24.00
2024-03-01T02:24:28.921Z,24.00
2024-03-01T02:26:31.541Z,24.00
2024-03-01T02:28:33.885Z,24.00
2024-03-01T02:30:35.759Z,24.00
2024-03-01T02:32:37.674Z,24.00
2024-03-01T02:34:39.555Z,23.90
2024-03-01T02:36:41.544Z,23.90
2024-03-01T02:38:43.698Z,23.90
2024-03-01T02:40:45.790Z,23.90
2024-03-01T02:42:47.647Z,23.90
2024-03-01T02:44:49.561Z,23.90
2024-03-01T02:46:51.365Z,23.90
2024-03-01T02:48:53.311Z,23.90
2024-03-01T02:50:55.146Z,23.80
2024-03-01T02:52:57.053Z,23.80
2024-03-01T02:54:58.890Z,23.80
2024-03-01T02:57:00.827Z,23.80
2024-03-01T02:59:02.674Z,23.80
2024-03-01T03:01:04.787Z,23.80
2024-03-01T03:03:06.725Z,23.80
2024-03-01T03:05:08.699Z,23.70
2024-03-01T03:07:11.599Z,23.70
2024-03-01T03:09:13.775Z,23.70
2024-03-01T03:11:15.659Z,23.70
2024-03-01T03:13:17.645Z,23.70
2024-03-01T03:15:19.560Z,23.70
2024-03-01T03:17:21.497Z,23.70
2024-03-01T03:19:23.367Z,23.70
2024-03-01T03:21:25.292Z,23.70
2024-03-01T03:23:27.152Z,23.70
2024-03-01T03:25:29.155Z,23.70
2024-03-01T03:27:31.088Z,23.70
2024-03-01T03:29:33.055Z,23.70
2024-03-01T03:31:34.876Z,23.70
2024-03-01T03:33:36.870Z,23.70
2024-03-01T03:35:38.816Z,23.70
2024-03-01T03:37:40.738Z,23.70
2024-03-01T03:39:42.567Z,23.70
2024-03-01T03:41:44.576Z,23.70
2024-03-01T03:43:46.382Z,23.70
2024-03-01T03:45:48.782Z,23.70
2024-03-01T03:47:50.703Z,23.70
2024-03-01T03:49:52.608Z,23.70
2024-03-01T03:51:54.488Z,23.70
2024-03-01T03:53:56.829Z,23.70
2024-03-01T03:55:58.698Z,23.70
2024-03-01T03:58:00.579Z,23.70
2024-03-01T04:00:03.822Z,23.70
2024-03-01T04:02:11.042Z,23.60
2024-03-01T04:04:13.097Z,23.60
2024-03-01T04:06:15.551Z,23.60
2024-03-01T04:08:17.361Z,23.60
2024-03-01T04:10:19.323Z,23.60
2024-03-01T04:12:21.168Z,23.60
2024-03-01T04:14:23.107Z,23.60
2024-03-01T04:16:25.037Z,23.60
2024-03-01T04:18:26.928Z,23.60
2024-03-01T04:20:28.738Z,23.60
2024-03-01T04:22:30.764Z,23.50
2024-03-01T04:24:32.701Z,23.50
2024-03-01T04:26:34.592Z,23.50
2024-03-01T04:28:40.039Z,23.50
2024-03-01T04:30:41.996Z,23.50
2024-03-01T04:32:43.873Z,23.50
2024-03-01T04:34:46.181Z,23.50
2024-03-01T04:36:48.025Z,23.50
2024-03-01T04:38:49.959Z,23.50
2024-03-01T04:40:51.864Z,23.50
2024-03-01T04:42:53.828Z,23.50
2024-03-01T04:44:55.664Z,23.50
2024-03-01T04:46:57.936Z,23.50
2024-03-01T04:48:59.834Z,23.50
2024-03-01T04:51:01.742Z,23.40
2024-03-01T04:53:03.641Z,23.50
2024-03-01T04:55:05.724Z,23.50
2024-03-01T04:57:07.553Z,23.40
2024-03-01T04:59:09.667Z,23.50
2024-03-01T05:01:12.331Z,23.50
2024-03-01T05:03:14.384Z,23.40
2024-03-01T05:05:16.421Z,23.50
2024-03-01T05:07:18.400Z,23.50
2024-03-01T05:09:20.328Z,23.40
2024-03-01T05:11:22.365Z,23.40
2024-03-01T05:13:24.314Z,23.40
2024-03-01T05:15:26.272Z,23.40
2024-03-01T05:17:28.116Z,23.40
2024-03-01T05:19:30.081Z,23.30
2024-03-01T05:21:32.001Z,23.30
2024-03-01T05:23:35.226Z,23.30
2024-03-01T05:25:37.584Z,23.30
2024-03-01T05:27:39.547Z,23.30
2024-03-01T05:29:41.480Z,23.30
2024-03-01T05:31:47.713Z,23.30
2024-03-01T05:33:49.639Z,23.30
2024-03-01T05:35:51.520Z,23.30
2024-03-01T05:37:53.321Z,23.30
2024-03-01T05:39:55.244Z,23.30
2024-03-01T05:41:57.068Z,23.30
2024-03-01T05:43:58.958Z,23.30
2024-03-01T05:46:01.231Z,23.30
2024-03-01T05:48:05.329Z,23.20
2024-03-01T05:50:07.977Z,23.30
2024-03-01T05:52:09.955Z,23.30
2024-03-01T05:54:11.744Z,23.20
2024-03-01T05:56:13.682Z,23.30
2024-03-01T05:58:15.608Z,23.20
2024-03-01T06:00:17.705Z,23.20
2024-03-01T06:02:19.568Z,23.20
2024-03-01T06:04:21.745Z,23.20
2024-03-01T06:06:23.620Z,23.20
2024-03-01T06:08:25.537Z,23.20
2024-03-01T06:10:27.574Z,23.20
2024-03-01T06:12:29.557Z,23.20
2024-03-01T06:14:31.346Z,23.20
2024-03-01T06:16:33.362Z,23.20
2024-03-01T06:18:35.473Z,23.20
2024-03-01T06:20:37.465Z,23.20
2024-03-01T06:22:39.378Z,23.20
2024-03-01T06:24:41.302Z,23.20
2024-03-01T06:26:43.166Z,23.20
2024-03-01T06:28:45.036Z,23.10
2024-03-01T06:30:46.909Z,23.10
2024-03-01T06:32:48.977Z,23.10
2024-03-01T06:34:50.918Z,23.10
2024-03-01T06:36:52.810Z,23.10
2024-03-01T06:38:54.637Z,23.10
2024-03-01T06:40:56.532Z,23.10
2024-03-01T06:42:58.363Z,23.10
2024-03-01T06:45:00.378Z,23.10
2024-03-01T06:47:04.424Z,23.10
2024-03-01T06:49:10.496Z,23.10
2024-03-01T06:51:12.484Z,23.10
2024-03-01T06:53:14.608Z,23.00
2024-03-01T06:55:16.471Z,23.10
2024-03-01T06:57:18.439Z,23.10
2024-03-01T06:59:20.251Z,23.10
2024-03-01T07:01:22.330Z,23.10
2024-03-01T07:03:24.265Z,23.10
2024-03-01T07:05:26.160Z,23.10
2024-03-01T07:07:28.047Z,23.10
2024-03-01T07:09:32.320Z,23.10
2024-03-01T07:11:34.144Z,23.10
2024-03-01T07:13:36.191Z,23.10
2024-03-01T07:15:38.470Z,23.10
2024-03-01T07:17:40.681Z,23.10
2024-03-01T07:19:42.631Z,23.10
2024-03-01T07:21:44.655Z,23.10
2024-03-01T07:23:46.446Z,23.10
2024-03-01T07:25:48.381Z,23.10
2024-03-01T07:27:50.176Z,23.10
2024-03-01T07:29:52.192Z,23.10
2024-03-01T07:31:54.047Z,23.10
2024-03-01T07:33:55.961Z,23.10
2024-03-01T07:35:57.878Z,23.10
2024-03-01T07:37:59.804Z,23.10
2024-03-01T07:40:01.817Z,23.00
2024-03-01T07:42:03.840Z,23.00
2024-03-01T07:44:05.673Z,23.00
2024-03-01T07:46:07.590Z,23.00
2024-03-01T07:48:09.506Z,23.00
2024-03-01T07:50:11.963Z,23.00
2024-03-01T07:52:13.848Z,23.00
2024-03-01T07:54:15.806Z,23.00
2024-03-01T07:56:22.923Z,23.00
2024-03-01T07:58:24.870Z,23.00
2024-03-01T08:00:26.865Z,22.90
2024-03-01T08:02:28.741Z,23.00
2024-03-01T08:04:30.612Z,22.90
2024-03-01T08:06:32.917Z,22.90
2024-03-01T08:08:37.714Z,23.00
2024-03-01T08:10:40.796Z,22.90
2024-03-01T08:12:42.634Z,22.90
2024-03-01T08:14:44.554Z,22.90
2024-03-01T08:16:46.359Z,22.90
2024-03-01T08:18:48.234Z,22.90
2024-03-01T08:20:55.943Z,22.90
2024-03-01T08:22:57.873Z,23.00
2024-03-01T08:24:59.774Z,23.00
2024-03-01T08:27:01.804Z,22.90
2024-03-01T08:29:03.623Z,22.90
2024-03-01T08:31:06.636Z,22.90
2024-03-01T08:33:09.729Z,22.90
2024-03-01T08:35:15.617Z,22.90
2024-03-01T08:37:23.308Z,23.00
2024-03-01T08:39:25.864Z,23.00
2024-03-01T08:41:27.763Z,23.00
2024-03-01T08:43:29.871Z,22.90
2024-03-01T08:45:44.184Z,22.90
2024-03-01T08:47:52.087Z,22.90
2024-03-01T08:49:56.981Z,22.90
2024-03-01T08:51:59.394Z,22.90
2024-03-01T08:54:02.274Z,22.80
2024-03-01T08:56:04.389Z,22.80
2024-03-01T08:58:12.560Z,22.80
2024-03-01T09:00:26.686Z,22.70
2024-03-01T09:02:28.474Z,22.80
2024-03-01T09:04:30.849Z,22.80
2024-03-01T09:06:33.035Z,22.80
2024-03-01T09:08:36.395Z,22.80
2024-03-01T09:10:38.297Z,22.70
2024-03-01T09:12:40.160Z,22.70
2024-03-01T09:14:42.041Z,22.80
2024-03-01T09:16:43.986Z,22.80
2024-03-01T09:18:46.824Z,22.80
2024-03-01T09:20:50.998Z,22.80
2024-03-01T09:22:53.188Z,22.70
2024-03-01T09:24:55.133Z,22.70
2024-03-01T09:26:57.013Z,22.70
2024-03-01T09:29:02.339Z,22.70
2024-03-01T09:31:04.240Z,22.70
2024-03-01T09:33:19.725Z,22.70
2024-03-01T09:35:26.654Z,22.60
2024-03-01T09:37:28.588Z,22.60
2024-03-01T09:39:30.968Z,22.70
2024-03-01T09:41:35.944Z,22.60
2024-03-01T09:43:49.592Z,22.60
2024-03-01T09:46:05.241Z,22.70
2024-03-01T09:48:20.308Z,22.70
2024-03-01T09:50:31.206Z,22.70
2024-03-01T09:52:40.881Z,22.60
2024-03-01T09:55:14.869Z,22.60
2024-03-01T09:57:20.129Z,22.60
2024-03-01T09:59:21.994Z,22.50
2024-03-01T10:01:34.770Z,22.60
2024-03-01T10:03:51.675Z,22.60
2024-03-01T10:06:15.185Z,22.50
2024-03-01T10:08:32.157Z,22.60
2024-03-01T10:10:34.303Z,22.60
2024-03-01T10:12:42.952Z,22.60
2024-03-01T10:14:47.615Z,22.60
2024-03-01T10:16:52.149Z,22.60
2024-03-01T10:18:54.061Z,22.70
2024-03-01T10:20:58.900Z,22.70
2024-03-01T10:23:07.393Z,22.70
2024-03-01T10:25:27.937Z,22.70
2024-03-01T10:27:36.657Z,22.70
2024-03-01T10:29:47.729Z,22.70
2024-03-01T10:31:52.433Z,22.70
2024-03-01T10:34:01.617Z,22.70
2024-03-01T10:36:09.677Z,22.70
2024-03-01T10:38:20.422Z,22.70
2024-03-01T10:40:23.856Z,22.80
2024-03-01T10:42:28.233Z,22.80
2024-03-01T10:44:39.081Z,22.80
2024-03-01T10:47:03.327Z,22.80
2024-03-01T10:49:05.979Z,22.80
2024-03-01T10:51:08.352Z,22.80
2024-03-01T10:53:26.592Z,22.80
2024-03-01T10:55:48.941Z,22.70
2024-03-01T10:57:55.940Z,22.60
2024-03-01T11:00:01.218Z,22.70
2024-03-01T11:02:10.968Z,22.70
2024-03-01T11:04:31.426Z,22.80
2024-03-01T11:06:35.186Z,22.80
2024-03-01T11:08:58.372Z,22.70
2024-03-01T11:11:12.633Z,22.70
2024-03-01T11:13:17.986Z,22.70
2024-03-01T11:15:20.820Z,22.70
2024-03-01T11:17:24.372Z,22.80
2024-03-01T11:19:27.977Z,22.80
2024-03-01T11:21:30.359Z,22.80
2024-03-01T11:23:36.233Z,22.80
2024-03-01T11:25:46.854Z,22.80
2024-03-01T11:27:48.709Z,22.90
2024-03-01T11:29:52.127Z,22.90
2024-03-01T11:32:04.308Z,22.90
2024-03-01T11:34:14.789Z,22.90
2024-03-01T11:36:32.038Z,22.90
2024-03-01T11:38:45.882Z,22.90
2024-03-01T11:40:56.870Z,22.90
2024-03-01T11:43:05.450Z,22.90
2024-03-01T11:45:14.432Z,22.90
2024-03-01T11:47:22.292Z,22.90
2024-03-01T11:49:39.188Z,22.90
2024-03-01T11:51:59.744Z,22.90
2024-03-01T11:54:13.951Z,22.80
2024-03-01T11:56:15.814Z,22.90
2024-03-01T11:58:32.090Z,22.90
2024-03-01T12:00:40.113Z,22.90
2024-03-01T12:02:44.949Z,22.90
2024-03-01T12:04:52.730Z,22.80
2024-03-01T12:06:57.652Z,22.90
2024-03-01T12:09:22.578Z,22.80
2024-03-01T12:11:33.537Z,22.80
2024-03-01T12:13:39.349Z,22.90
2024-03-01T12:15:53.360Z,22.80
2024-03-01T12:18:15.477Z,22.80
2024-03-01T12:20:17.721Z,22.80
2024-03-01T12:22:45.674Z,22.80
2024-03-01T12:24:48.671Z,22.80
2024-03-01T12:26:50.474Z,22.80
2024-03-01T12:28:55.324Z,22.80
2024-03-01T12:31:03.188Z,22.80
2024-03-01T12:33:05.201Z,22.90
2024-03-01T12:35:09.765Z,22.90
2024-03-01T12:37:20.634Z,22.90
2024-03-01T12:39:24.294Z,22.90
2024-03-01T12:41:26.185Z,22.90
2024-03-01T12:43:39.630Z,22.90
2024-03-01T12:46:00.159Z,22.90
2024-03-01T12:48:28.413Z,22.90
2024-03-01T12:50:35.866Z,22.90
2024-03-01T12:52:49.286Z,22.90
2024-03-01T12:54:56.892Z,22.90
2024-03-01T12:57:13.046Z,22.90
2024-03-01T12:59:22.075Z,22.90
2024-03-01T13:01:35.951Z,22.90
2024-03-01T13:03:56.617Z,22.90
2024-03-01T13:05:59.082Z,22.90
2024-03-01T13:08:01.995Z,22.90
2024-03-01T13:10:03.962Z,22.90
2024-03-01T13:12:08.209Z,22.90
2024-03-01T13:14:10.060Z,22.90
2024-03-01T13:16:12.678Z,22.90
2024-03-01T13:18:17.742Z,23.00
2024-03-01T13:20:19.846Z,22.90
2024-03-01T13:22:23.180Z,22.90
2024-03-01T13:24:31.002Z,22.90
2024-03-01T13:26:38.697Z,22.90
2024-03-01T13:28:48.297Z,22.90
2024-03-01T13:30:51.137Z,22.90
2024-03-01T13:33:01.626Z,22.90
2024-03-01T13:35:12.065Z,22.90
2024-03-01T13:37:15.847Z,22.90
2024-03-01T13:39:40.163Z,22.90
2024-03-01T13:42:02.798Z,22.90
2024-03-01T13:44:23.357Z,22.80
2024-03-01T13:46:51.361Z,22.90
2024-03-01T13:48:53.331Z,22.90
2024-03-01T13:50:55.713Z,22.80
2024-03-01T13:52:58.711Z,22.80
2024-03-01T13:55:00.691Z,22.90
2024-03-01T13:57:06.070Z,22.90
2024-03-01T13:59:07.910Z,22.90
2024-03-01T14:01:09.840Z,22.90
2024-03-01T14:03:11.803Z,23.00
2024-03-01T14:05:13.735Z,23.00
2024-03-01T14:07:15.770Z,23.00
2024-03-01T14:09:17.831Z,23.00
2024-03-01T14:11:19.985Z,23.00
2024-03-01T14:13:28.163Z,23.00
2024-03-01T14:15:30.210Z,22.90
2024-03-01T14:17:32.044Z,22.90
2024-03-01T14:19:33.974Z,22.90
2024-03-01T14:21:35.893Z,23.00
2024-03-01T14:23:40.981Z,23.00
2024-03-01T14:25:42.843Z,23.00
2024-03-01T14:27:46.004Z,23.00
2024-03-01T14:29:47.835Z,23.00
2024-03-01T14:32:08.440Z,23.00
2024-03-01T14:34:10.314Z,23.00
2024-03-01T14:36:14.242Z,23.00
2024-03-01T14:38:17.880Z,22.90
2024-03-01T14:40:20.173Z,22.80
2024-03-01T14:42:22.174Z,22.70
2024-03-01T14:44:24.337Z,22.70
2024-03-01T14:46:38.756Z,22.60
2024-03-01T14:48:41.141Z,22.70
2024-03-01T14:50:43.791Z,22.70
2024-03-01T14:52:45.738Z,22.70
2024-03-01T14:54:47.832Z,22.70
2024-03-01T14:56:50.541Z,22.70
2024-03-01T14:58:52.418Z,22.70
2024-03-01T15:00:54.493Z,22.80
2024-03-01T15:02:56.321Z,22.80
2024-03-01T15:04:58.308Z,22.90
2024-03-01T15:07:00.232Z,22.90
2024-03-01T15:09:02.803Z,22.90
2024-03-01T15:11:28.111Z,22.90
2024-03-01T15:13:30.153Z,22.90
2024-03-01T15:15:31.963Z,22.90
2024-03-01T15:17:36.929Z,23.00
2024-03-01T15:19:39.556Z,23.00
2024-03-01T15:21:41.661Z,23.00
2024-03-01T15:23:44.081Z,23.00
2024-03-01T15:25:46.433Z,22.90
2024-03-01T15:27:48.262Z,22.90
2024-03-01T15:29:50.168Z,22.90
2024-03-01T15:31:52.028Z,22.90
2024-03-01T15:33:53.981Z,22.90
2024-03-01T15:35:55.970Z,22.90
2024-03-01T15:37:57.870Z,22.80
2024-03-01T15:39:59.957Z,22.90
2024-03-01T15:42:01.941Z,22.90
2024-03-01T15:44:03.876Z,22.90
2024-03-01T15:46:05.839Z,22.80
2024-03-01T15:48:08.034Z,22.80
2024-03-01T15:50:10.241Z,22.80
2024-03-01T15:52:12.128Z,22.80
2024-03-01T15:54:13.996Z,22.80
2024-03-01T15:56:16.021Z,22.80
2024-03-01T15:58:18.011Z,22.80
2024-03-01T16:00:20.001Z,22.80
2024-03-01T16:02:22.311Z,22.80
2024-03-01T16:04:28.019Z,22.80
2024-03-01T16:06:32.752Z,22.80
2024-03-01T16:08:34.564Z,22.80
2024-03-01T16:10:36.539Z,22.80
2024-03-01T16:12:38.391Z,22.80
2024-03-01T16:14:48.030Z,22.80
2024-03-01T16:16:49.900Z,22.80
2024-03-01T16:18:52.043Z,22.80
2024-03-01T16:20:54.280Z,22.80
2024-03-01T16:22:57.142Z,22.80
2024-03-01T16:24:59.054Z,22.90
2024-03-01T16:27:01.087Z,22.90
2024-03-01T16:29:03.070Z,22.90
2024-03-01T16:31:05.650Z,22.80
2024-03-01T16:33:13.788Z,22.70
2024-03-01T16:35:25.160Z,22.70
2024-03-01T16:37:30.314Z,22.70
2024-03-01T16:39:33.383Z,22.70
2024-03-01T16:41:39.243Z,22.70
2024-03-01T16:43:45.415Z,22.80
2024-03-01T16:45:47.293Z,22.90
2024-03-01T16:47:49.203Z,22.90
2024-03-01T16:49:51.136Z,22.90
2024-03-01T16:51:55.969Z,22.90
2024-03-01T16:53:57.808Z,22.90
2024-03-01T16:56:03.340Z,22.90
2024-03-01T16:58:05.255Z,22.90
2024-03-01T17:00:07.670Z,22.90
2024-03-01T17:02:18.493Z,22.90
2024-03-01T17:04:21.736Z,22.90
2024-03-01T17:06:23.896Z,22.70
2024-03-01T17:08:25.875Z,22.60
2024-03-01T17:10:35.119Z,22.50
2024-03-01T17:12:37.098Z,22.40
2024-03-01T17:14:40.079Z,22.40
2024-03-01T17:16:42.038Z,22.40
2024-03-01T17:18:44.170Z,22.50
2024-03-01T17:20:47.827Z,22.60
2024-03-01T17:22:52.605Z,22.50
2024-03-01T17:24:54.476Z,22.50
2024-03-01T17:26:56.345Z,22.60
2024-03-01T17:28:58.197Z,22.60
2024-03-01T17:31:00.074Z,22.60
2024-03-01T17:33:02.055Z,22.60
2024-03-01T17:35:03.968Z,22.60
2024-03-01T17:37:05.916Z,22.60
2024-03-01T17:39:07.822Z,22.60
2024-03-01T17:41:09.725Z,22.60
2024-03-01T17:43:11.598Z,22.70
2024-03-01T17:45:13.591Z,22.70
2024-03-01T17:47:18.773Z,22.70
2024-03-01T17:49:20.926Z,22.70
2024-03-01T17:51:22.879Z,22.70
2024-03-01T17:53:24.832Z,22.70
2024-03-01T17:55:26.724Z,22.70
2024-03-01T17:57:28.628Z,22.70
2024-03-01T17:59:30.501Z,22.70
2024-03-01T18:01:32.599Z,22.70
2024-03-01T18:03:34.480Z,22.70
2024-03-01T18:05:36.389Z,22.70
2024-03-01T18:07:38.342Z,22.70
2024-03-01T18:09:40.244Z,22.70
2024-03-01T18:11:42.160Z,22.70
2024-03-01T18:13:44.295Z,22.70
2024-03-01T18:15:46.164Z,22.70
2024-03-01T18:17:48.137Z,22.70
2024-03-01T18:19:50.036Z,22.70
2024-03-01T18:21:54.661Z,22.70
2024-03-01T18:23:56.782Z,22.70
2024-03-01T18:25:58.718Z,22.70
2024-03-01T18:28:00.647Z,22.70
2024-03-01T18:30:02.614Z,22.60
2024-03-01T18:32:04.727Z,22.60
2024-03-01T18:34:06.654Z,22.60
2024-03-01T18:36:08.536Z,22.60
2024-03-01T18:38:10.487Z,22.60
2024-03-01T18:40:12.413Z,22.60
2024-03-01T18:42:14.417Z,22.60
2024-03-01T18:44:16.349Z,22.60
2024-03-01T18:46:18.326Z,22.60
2024-03-01T18:48:20.183Z,22.60
2024-03-01T18:50:22.145Z,22.60
2024-03-01T18:52:23.997Z,22.60
2024-03-01T18:54:25.884Z,22.60
2024-03-01T18:56:27.720Z,22.60
2024-03-01T18:58:29.676Z,22.60
2024-03-01T19:00:34.595Z,22.60
2024-03-01T19:02:38.380Z,22.60
2024-03-01T19:04:40.346Z,22.60
2024-03-01T19:06:42.249Z,22.60
2024-03-01T19:08:44.163Z,22.60
2024-03-01T19:10:46.313Z,22.70
2024-03-01T19:12:48.342Z,22.70
2024-03-01T19:14:50.418Z,22.70
2024-03-01T19:16:52.363Z,22.70
2024-03-01T19:18:54.302Z,22.70
2024-03-01T19:20:56.107Z,22.70
2024-03-01T19:22:58.041Z,22.70
2024-03-01T19:25:02.579Z,22.70
2024-03-01T19:27:04.677Z,22.70
2024-03-01T19:29:06.485Z,22.70
2024-03-01T19:31:08.384Z,22.70
2024-03-01T19:33:10.265Z,22.60
2024-03-01T19:35:12.182Z,22.60
2024-03-01T19:37:14.153Z,22.60
2024-03-01T19:39:16.105Z,22.60
2024-03-01T19:41:17.893Z,22.60
2024-03-01T19:43:19.950Z,22.60
2024-03-01T19:45:21.807Z,22.60
2024-03-01T19:47:23.725Z,22.60
2024-03-01T19:49:25.564Z,22.60
2024-03-01T19:51:27.488Z,22.50
2024-03-01T19:53:29.306Z,22.50
2024-03-01T19:55:31.308Z,22.50
2024-03-01T19:57:33.176Z,22.50
2024-03-01T19:59:36.425Z,22.50
2024-03-01T20:01:38.347Z,22.50
2024-03-01T20:03:40.344Z,22.60
2024-03-01T20:05:42.196Z,22.60
2024-03-01T20:07:44.117Z,22.60
2024-03-01T20:09:45.957Z,22.60
2024-03-01T20:11:47.877Z,22.50
2024-03-01T20:13:49.703Z,22.60
2024-03-01T20:15:51.616Z,22.60
2024-03-01T20:17:53.443Z,22.60
2024-03-01T20:19:55.370Z,22.70
2024-03-01T20:21:57.222Z,22.60
2024-03-01T20:23:59.068Z,22.70
2024-03-01T20:26:00.885Z,22.70
2024-03-01T20:28:02.896Z,22.70
2024-03-01T20:30:04.989Z,22.60
2024-03-01T20:32:07.758Z,22.60
2024-03-01T20:34:09.668Z,22.60
2024-03-01T20:36:11.611Z,22.70
2024-03-01T20:38:13.477Z,22.60
2024-03-01T20:40:15.580Z,22.60
2024-03-01T20:42:17.575Z,22.60
2024-03-01T20:44:19.524Z,22.60
2024-03-01T20:46:21.382Z,22.50
2024-03-01T20:48:23.962Z,22.40
2024-03-01T20:50:25.833Z,22.40
2024-03-01T20:52:27.795Z,22.30
2024-03-01T20:54:29.660Z,22.40
2024-03-01T20:56:31.572Z,22.40
2024-03-01T20:58:33.385Z,22.30
2024-03-01T21:00:35.398Z,22.20
2024-03-01T21:02:37.405Z,22.20
2024-03-01T21:04:39.483Z,22.20
2024-03-01T21:06:41.319Z,22.20
2024-03-01T21:08:43.228Z,22.20
2024-03-01T21:10:45.230Z,22.10
2024-03-01T21:12:47.197Z,22.20
2024-03-01T21:14:49.024Z,22.30
2024-03-01T21:16:50.988Z,22.20
2024-03-01T21:18:52.869Z,22.30
2024-03-01T21:20:54.807Z,22.30
2024-03-01T21:22:56.670Z,22.40
2024-03-01T21:24:58.649Z,22.30
2024-03-01T21:27:00.571Z,22.30
2024-03-01T21:29:02.534Z,22.30
2024-03-01T21:31:04.399Z,22.30
2024-03-01T21:33:06.332Z,22.30
2024-03-01T21:35:08.487Z,21.90
2024-03-01T21:37:10.450Z,22.30
2024-03-01T21:39:12.393Z,22.30
2024-03-01T21:41:14.324Z,22.30
2024-03-01T21:43:16.243Z,22.30
2024-03-01T21:45:18.200Z,22.20
2024-03-01T21:47:20.045Z,22.30
2024-03-01T21:49:21.968Z,22.30
2024-03-01T21:51:23.901Z,22.30
2024-03-01T21:53:25.902Z,22.30
2024-03-01T21:55:27.807Z,22.30
2024-03-01T21:57:29.850Z,22.30
2024-03-01T21:59:31.746Z,22.30
2024-03-01T22:01:33.775Z,22.30
2024-03-01T22:03:35.877Z,22.30
2024-03-01T22:05:37.883Z,22.30
2024-03-01T22:07:39.739Z,22.30
2024-03-01T22:09:41.818Z,22.30
2024-03-01T22:11:43.752Z,22.30
2024-03-01T22:13:45.665Z,22.20
2024-03-01T22:15:47.511Z,22.20
2024-03-01T22:17:49.463Z,22.20
2024-03-01T22:19:51.433Z,22.20
2024-03-01T22:21:53.483Z,22.20
2024-03-01T22:23:55.374Z,22.20
2024-03-01T22:25:57.327Z,22.20
2024-03-01T22:27:59.158Z,22.20
2024-03-01T22:30:01.175Z,22.20
2024-03-01T22:32:03.049Z,22.20
2024-03-01T22:34:05.293Z,22.20
2024-03-01T22:36:10.228Z,22.20
2024-03-01T22:38:12.189Z,22.20
2024-03-01T22:40:14.067Z,22.20
2024-03-01T22:42:15.989Z,22.20
2024-03-01T22:44:17.890Z,22.20
2024-03-01T22:46:19.836Z,22.20
2024-03-01T22:48:21.756Z,22.20
2024-03-01T22:50:24.083Z,22.20
2024-03-01T22:52:32.684Z,22.20
2024-03-01T22:54:34.833Z,22.20
2024-03-01T22:56:36.698Z,22.20
2024-03-01T22:58:39.167Z,22.20
2024-03-01T23:00:41.918Z,22.20
2024-03-01T23:02:44.057Z,22.20
2024-03-01T23:04:46.043Z,22.20
2024-03-01T23:06:48.087Z,22.20
2024-03-01T23:08:59.504Z,22.20
2024-03-01T23:11:01.755Z,22.20
2024-03-01T23:13:03.627Z,22.20
2024-03-01T23:15:05.645Z,22.10
2024-03-01T23:17:08.043Z,22.10
2024-03-01T23:19:09.964Z,22.10
2024-03-01T23:21:12.096Z,22.10
2024-03-01T23:23:14.044Z,22.10
2024-03-01T23:25:15.955Z,22.10
2024-03-01T23:27:18.264Z,22.10
2024-03-01T23:29:20.116Z,22.10
2024-03-01T23:31:22.105Z,22.10
2024-03-01T23:33:24.052Z,22.10
2024-03-01T23:35:26.058Z,22.10
2024-03-01T23:37:27.913Z,22.10
2024-03-01T23:39:29.850Z,22.10
2024-03-01T23:41:31.691Z,22.10
2024-03-01T23:43:33.654Z,22.10
2024-03-01T23:45:35.531Z,22.10
2024-03-01T23:47:37.766Z,22.10
2024-03-01T23:49:41.271Z,22.10
2024-03-01T23:51:43.237Z,22.20
2024-03-01T23:53:45.090Z,22.10
2024-03-01T23:55:47.368Z,22.10
2024-03-01T23:57:49.592Z,22.10
2024-03-01T23:59:51.570Z,22.10
